createdAt,value
2023-05-13T00:00:45.269Z,96968.94
2023-05-13T00:01:50.826Z,96974.25
2023-05-13T00:03:00.871Z,96967.34
2023-05-13T00:04:06.097Z,96955.53
2023-05-13T00:05:12.770Z,96958.63
2023-05-13T00:06:17.406Z,96958.47
2023-05-13T00:07:23.811Z,96952.81
2023-05-13T00:08:28.648Z,96961.47
2023-05-13T00:09:34.556Z,96954.41
2023-05-13T00:10:39.079Z,96954.28
2023-05-13T00:11:45.516Z,96953.91
2023-05-13T00:12:49.555Z,96954.81
2023-05-13T00:13:54.132Z,96959.78
2023-05-13T00:14:58.462Z,96951.69
2023-05-13T00:16:06.112Z,96956.41
2023-05-13T00:17:10.751Z,96950.50
2023-05-13T00:18:19.261Z,96950.97
2023-05-13T00:19:24.750Z,96942.44
2023-05-13T00:20:31.743Z,96951.41
2023-05-13T00:21:37.070Z,96950.84
2023-05-13T00:22:43.378Z,96951.88
2023-05-13T00:23:49.541Z,96950.25
2023-05-13T00:24:56.325Z,96948.59
2023-05-13T00:26:02.501Z,96943.28
2023-05-13T00:27:08.108Z,96945.38
2023-05-13T00:28:15.277Z,96942.72
2023-05-13T00:29:20.618Z,96954.38
2023-05-13T00:30:25.958Z,96951.72
2023-05-13T00:31:32.096Z,96942.97
2023-05-13T00:32:35.434Z,96944.56
2023-05-13T00:33:43.003Z,96940.88
2023-05-13T00:34:47.504Z,96937.97
2023-05-13T00:35:52.689Z,96947.38
2023-05-13T00:36:56.334Z,96937.56
2023-05-13T00:38:02.353Z,96945.28
2023-05-13T00:39:08.714Z,96937.09
2023-05-13T00:40:24.946Z,96938.72
2023-05-13T00:41:30.805Z,96939.31
2023-05-13T00:42:35.083Z,96936.88
2023-05-13T00:43:39.743Z,96942.53
2023-05-13T00:44:45.881Z,96936.78
2023-05-13T00:45:51.112Z,96933.31
2023-05-13T00:46:58.065Z,96932.50
2023-05-13T00:48:02.839Z,96936.19
2023-05-13T00:49:10.015Z,96935.16
2023-05-13T00:50:16.660Z,96932.50
2023-05-13T00:51:22.654Z,96936.41
2023-05-13T00:52:27.517Z,96935.03
2023-05-13T00:53:35.938Z,96926.50
2023-05-13T00:54:39.756Z,96931.19
2023-05-13T00:55:45.078Z,96925.31
2023-05-13T00:56:49.432Z,96931.88
2023-05-13T00:57:55.680Z,96929.69
2023-05-13T00:59:00.032Z,96929.31
2023-05-13T01:00:07.452Z,96923.03
2023-05-13T01:01:22.014Z,96923.50
2023-05-13T01:02:44.744Z,96923.13
2023-05-13T01:03:57.361Z,96924.03
2023-05-13T01:05:15.728Z,96929.78
2023-05-13T01:06:24.690Z,96921.69
2023-05-13T01:07:37.544Z,96929.06
2023-05-13T01:08:50.102Z,96926.63
2023-05-13T01:10:06.655Z,96920.97
2023-05-13T01:11:17.532Z,96917.50
2023-05-13T01:12:27.837Z,96922.00
2023-05-13T01:13:44.779Z,96924.06
2023-05-13T01:14:59.536Z,96919.78
2023-05-13T01:16:12.735Z,96925.91
2023-05-13T01:17:24.221Z,96930.41
2023-05-13T01:18:35.725Z,96921.84
2023-05-13T01:19:43.646Z,96921.63
2023-05-13T01:20:51.438Z,96934.88
2023-05-13T01:21:56.943Z,96928.75
2023-05-13T01:23:01.600Z,96925.09
2023-05-13T01:24:08.771Z,96925.91
2023-05-13T01:25:17.447Z,96929.94
2023-05-13T01:26:22.165Z,96927.28
2023-05-13T01:27:28.355Z,96921.78
2023-05-13T01:28:33.108Z,96920.50
2023-05-13T01:29:39.489Z,96917.03
2023-05-13T01:30:44.419Z,96930.91
2023-05-13T01:31:50.583Z,96933.34
2023-05-13T01:32:54.652Z,96930.69
2023-05-13T01:34:01.751Z,96929.88
2023-05-13T01:35:07.939Z,96932.06
2023-05-13T01:36:13.352Z,96930.81
2023-05-13T01:37:19.623Z,96931.41
2023-05-13T01:38:26.276Z,96936.28
2023-05-13T01:39:32.816Z,96935.00
2023-05-13T01:40:38.456Z,96934.81
2023-05-13T01:41:43.457Z,96932.72
2023-05-13T01:42:49.959Z,96931.69
2023-05-13T01:43:54.670Z,96931.47
2023-05-13T01:45:00.740Z,96933.66
2023-05-13T01:46:05.216Z,96930.78
2023-05-13T01:47:11.268Z,96934.84
2023-05-13T01:48:14.590Z,96939.13
2023-05-13T01:49:20.563Z,96925.84
2023-05-13T01:50:24.737Z,96926.66
2023-05-13T01:51:32.774Z,96925.59
2023-05-13T01:52:39.227Z,96926.22
2023-05-13T01:53:45.337Z,96919.63
2023-05-13T01:54:49.170Z,96929.44
2023-05-13T01:55:53.525Z,96932.09
2023-05-13T01:56:58.997Z,96928.41
2023-05-13T01:58:04.980Z,96933.94
2023-05-13T01:59:11.885Z,96936.03
2023-05-13T02:00:16.954Z,96929.91
2023-05-13T02:01:28.947Z,96926.66
2023-05-13T02:02:33.139Z,96927.69
2023-05-13T02:03:42.626Z,96928.72
2023-05-13T02:04:48.172Z,96933.22
2023-05-13T02:05:53.862Z,96934.47
2023-05-13T02:06:58.809Z,96928.59
2023-05-13T02:08:04.912Z,96931.25
2023-05-13T02:09:13.191Z,96929.63
2023-05-13T02:10:19.148Z,96928.00
2023-05-13T02:11:24.625Z,96930.06
2023-05-13T02:12:29.923Z,96932.16
2023-05-13T02:13:34.689Z,96931.09
2023-05-13T02:14:40.965Z,96929.69
2023-05-13T02:15:45.403Z,96930.16
2023-05-13T02:16:49.574Z,96930.38
2023-05-13T02:17:54.037Z,96929.78
2023-05-13T02:18:59.439Z,96933.47
2023-05-13T02:20:04.214Z,96928.03
2023-05-13T02:21:09.904Z,96930.69
2023-05-13T02:22:14.625Z,96929.28
2023-05-13T02:23:20.412Z,96921.34
2023-05-13T02:24:26.763Z,96918.88
2023-05-13T02:25:33.254Z,96923.97
2023-05-13T02:26:38.278Z,96920.50
2023-05-13T02:27:42.703Z,96930.31
2023-05-13T02:28:49.062Z,96929.50
2023-05-13T02:29:53.117Z,96933.19
2023-05-13T02:31:00.950Z,96921.78
2023-05-13T02:32:06.335Z,96916.69
2023-05-13T02:33:12.258Z,96917.69
2023-05-13T02:34:16.926Z,96910.78
2023-05-13T02:35:20.716Z,96908.72
2023-05-13T02:36:25.892Z,96907.09
2023-05-13T02:37:31.768Z,96908.72
2023-05-13T02:38:37.830Z,96907.09
2023-05-13T02:39:43.504Z,96907.91
2023-05-13T02:40:50.090Z,96910.19
2023-05-13T02:41:54.841Z,96908.59
2023-05-13T02:42:58.626Z,96909.63
2023-05-13T02:44:05.230Z,96909.16
2023-05-13T02:45:11.295Z,96905.13
2023-05-13T02:46:16.565Z,96899.00
2023-05-13T02:47:19.978Z,96909.16
2023-05-13T02:48:28.437Z,96903.84
2023-05-13T02:49:33.037Z,96908.16
2023-05-13T02:50:39.549Z,96914.03
2023-05-13T02:51:43.036Z,96912.19
2023-05-13T02:52:48.510Z,96911.94
2023-05-13T02:53:54.463Z,96912.56
2023-05-13T02:54:58.885Z,96915.22
2023-05-13T02:56:03.955Z,96912.56
2023-05-13T02:57:09.568Z,96916.03
2023-05-13T02:58:14.017Z,96917.41
2023-05-13T02:59:18.792Z,96913.94
2023-05-13T03:00:32.012Z,96916.38
2023-05-13T03:01:41.370Z,96913.72
2023-05-13T03:02:48.368Z,96922.72
2023-05-13T03:03:56.425Z,96923.53
2023-05-13T03:05:02.091Z,96921.09
2023-05-13T03:06:08.352Z,96923.75
2023-05-13T03:07:11.868Z,96930.69
2023-05-13T03:08:17.461Z,96933.91
2023-05-13T03:09:21.915Z,96936.56
2023-05-13T03:10:27.564Z,96937.19
2023-05-13T03:11:33.541Z,96937.19
2023-05-13T03:12:37.916Z,96935.53
2023-05-13T03:13:42.748Z,96936.56
2023-05-13T03:14:47.007Z,96933.91
2023-05-13T03:15:52.649Z,96937.63
2023-05-13T03:16:57.691Z,96931.50
2023-05-13T03:18:02.115Z,96925.00
2023-05-13T03:19:07.410Z,96929.50
2023-05-13T03:20:13.571Z,96933.19
2023-05-13T03:21:18.126Z,96911.16
2023-05-13T03:22:23.388Z,96920.97
2023-05-13T03:23:28.056Z,96925.00
2023-05-13T03:24:34.391Z,96923.75
2023-05-13T03:25:38.353Z,96925.38
2023-05-13T03:26:43.676Z,96924.34
2023-05-13T03:27:48.993Z,96928.16
2023-05-13T03:28:54.385Z,96921.81
2023-05-13T03:30:00.669Z,96928.53
2023-05-13T03:31:07.304Z,96922.63
2023-05-13T03:32:12.529Z,96924.47
2023-05-13T03:33:19.204Z,96922.41
2023-05-13T03:34:23.642Z,96917.09
2023-05-13T03:35:28.957Z,96923.22
2023-05-13T03:36:34.743Z,96924.84
2023-05-13T03:37:40.469Z,96924.84
2023-05-13T03:38:45.540Z,96922.19
2023-05-13T03:39:51.739Z,96918.72
2023-05-13T03:40:55.993Z,96927.72
2023-05-13T03:42:00.620Z,96926.09
2023-05-13T03:43:07.179Z,96925.66
2023-05-13T03:44:12.870Z,96911.00
2023-05-13T03:45:19.210Z,96918.72
2023-05-13T03:46:23.610Z,96921.38
2023-05-13T03:47:29.342Z,96909.72
2023-05-13T03:48:33.883Z,96915.03
2023-05-13T03:49:39.374Z,96907.66
2023-05-13T03:50:45.774Z,96913.78
2023-05-13T03:51:51.250Z,96912.75
2023-05-13T03:52:55.334Z,96916.22
2023-05-13T03:54:00.268Z,96916.22
2023-05-13T03:55:07.913Z,96915.63
2023-05-13T03:56:14.359Z,96921.16
2023-05-13T03:57:18.448Z,96923.22
2023-05-13T03:58:23.428Z,96925.50
2023-05-13T03:59:27.665Z,96923.91
2023-05-13T04:00:33.493Z,96930.44
2023-05-13T04:01:37.969Z,96922.94
2023-05-13T04:02:44.580Z,96913.56
2023-05-13T04:03:49.991Z,96918.06
2023-05-13T04:04:54.557Z,96921.78
2023-05-13T04:05:57.662Z,96918.50
2023-05-13T04:07:03.456Z,96914.03
2023-05-13T04:08:07.159Z,96926.28
2023-05-13T04:09:12.853Z,96923.63
2023-05-13T04:10:18.413Z,96924.19
2023-05-13T04:11:23.901Z,96925.81
2023-05-13T04:12:27.701Z,96925.00
2023-05-13T04:13:33.528Z,96925.81
2023-05-13T04:14:38.601Z,96929.06
2023-05-13T04:15:45.980Z,96936.00
2023-05-13T04:16:49.500Z,96930.69
2023-05-13T04:17:55.713Z,96929.66
2023-05-13T04:19:02.306Z,96925.13
2023-05-13T04:20:08.004Z,96926.75
2023-05-13T04:21:12.009Z,96936.34
2023-05-13T04:22:19.239Z,96931.88
2023-05-13T04:23:23.372Z,96930.81
2023-05-13T04:24:29.264Z,96935.09
2023-05-13T04:25:38.635Z,96941.44
2023-05-13T04:26:44.475Z,96934.28
2023-05-13T04:27:48.864Z,96929.78
2023-05-13T04:28:53.711Z,96942.03
2023-05-13T04:29:59.013Z,96934.06
2023-05-13T04:31:04.847Z,96940.97
2023-05-13T04:32:08.610Z,96933.03
2023-05-13T04:33:15.658Z,96937.09
2023-05-13T04:34:21.101Z,96939.50
2023-05-13T04:35:27.077Z,96935.81
2023-05-13T04:36:30.973Z,96935.38
2023-05-13T04:37:37.796Z,96934.13
2023-05-13T04:38:43.614Z,96928.34
2023-05-13T04:39:49.654Z,96928.97
2023-05-13T04:40:55.322Z,96925.03
2023-05-13T04:42:00.326Z,96921.34
2023-05-13T04:43:04.508Z,96926.22
2023-05-13T04:44:10.870Z,96916.16
2023-05-13T04:45:15.124Z,96924.94
2023-05-13T04:46:22.453Z,96918.81
2023-05-13T04:47:26.740Z,96925.53
2023-05-13T04:48:32.176Z,96919.41
2023-05-13T04:49:36.581Z,96915.50
2023-05-13T04:50:49.184Z,96924.84
2023-05-13T04:51:55.213Z,96914.22
2023-05-13T04:52:59.587Z,96917.47
2023-05-13T04:54:04.005Z,96922.31
2023-05-13T04:55:10.589Z,96924.75
2023-05-13T04:56:18.178Z,96922.91
2023-05-13T04:57:23.456Z,96915.78
2023-05-13T04:58:27.397Z,96926.75
2023-05-13T04:59:32.235Z,96932.63
2023-05-13T05:00:36.933Z,96931.16
2023-05-13T05:01:42.273Z,96932.31
2023-05-13T05:02:47.574Z,96938.78
2023-05-13T05:03:53.262Z,96932.44
2023-05-13T05:04:58.914Z,96934.66
2023-05-13T05:06:04.547Z,96935.00
2023-05-13T05:07:09.182Z,96942.72
2023-05-13T05:08:14.530Z,96942.31
2023-05-13T05:09:19.519Z,96938.94
2023-05-13T05:10:25.638Z,96948.31
2023-05-13T05:11:31.789Z,96942.53
2023-05-13T05:12:38.801Z,96945.78
2023-05-13T05:13:42.915Z,96948.59
2023-05-13T05:14:48.210Z,96952.41
2023-05-13T05:15:53.348Z,96946.44
2023-05-13T05:16:57.735Z,96938.81
2023-05-13T05:18:02.101Z,96937.28
2023-05-13T05:19:07.373Z,96937.44
2023-05-13T05:20:12.327Z,96944.84
2023-05-13T05:21:19.055Z,96937.56
2023-05-13T05:22:24.031Z,96943.78
2023-05-13T05:23:28.538Z,96950.28
2023-05-13T05:24:32.744Z,96952.81
2023-05-13T05:25:38.883Z,96955.38
2023-05-13T05:26:45.165Z,96952.34
2023-05-13T05:27:49.618Z,96954.41
2023-05-13T05:28:55.680Z,96958.91
2023-05-13T05:30:00.333Z,96955.88
2023-05-13T05:31:06.506Z,96958.75
2023-05-13T05:32:09.972Z,96958.63
2023-05-13T05:33:15.488Z,96961.41
2023-05-13T05:34:19.437Z,96956.63
2023-05-13T05:35:25.031Z,96954.94
2023-05-13T05:36:30.261Z,96952.38
2023-05-13T05:37:38.575Z,96952.22
2023-05-13T05:38:44.057Z,96953.47
2023-05-13T05:39:49.798Z,96956.72
2023-05-13T05:40:55.575Z,96951.06
2023-05-13T05:42:04.484Z,96946.06
2023-05-13T05:43:12.394Z,96942.50
2023-05-13T05:44:17.647Z,96944.59
2023-05-13T05:45:29.327Z,96934.28
2023-05-13T05:46:34.793Z,96940.19
2023-05-13T05:47:41.199Z,96946.31
2023-05-13T05:48:46.917Z,96954.28
2023-05-13T05:49:53.483Z,96951.41
2023-05-13T05:50:58.455Z,96951.03
2023-05-13T05:52:04.176Z,96951.72
2023-05-13T05:53:10.086Z,96951.81
2023-05-13T05:54:14.885Z,96952.91
2023-05-13T05:55:18.630Z,96955.59
2023-05-13T05:56:25.560Z,96948.13
2023-05-13T05:57:32.174Z,96958.56
2023-05-13T05:58:37.954Z,96959.66
2023-05-13T05:59:42.986Z,96961.59
2023-05-13T06:00:49.323Z,96962.72
2023-05-13T06:01:53.963Z,96966.00
2023-05-13T06:03:00.294Z,96975.13
2023-05-13T06:04:05.860Z,96976.53
2023-05-13T06:05:13.516Z,96977.34
2023-05-13T06:06:18.730Z,96975.72
2023-05-13T06:07:23.952Z,96980.78
2023-05-13T06:08:30.748Z,96984.22
2023-05-13T06:09:37.292Z,96976.13
2023-05-13T06:10:44.536Z,96975.00
2023-05-13T06:11:53.006Z,96971.25
2023-05-13T06:13:04.606Z,96973.84
2023-05-13T06:14:14.087Z,96980.75
2023-05-13T06:15:22.020Z,96983.38
2023-05-13T06:16:29.613Z,96986.78
2023-05-13T06:17:40.108Z,96992.66
2023-05-13T06:18:44.800Z,96988.56
2023-05-13T06:19:51.889Z,96991.47
2023-05-13T06:20:55.679Z,96992.31
2023-05-13T06:22:03.263Z,96991.25
2023-05-13T06:23:09.891Z,96993.09
2023-05-13T06:24:16.144Z,96989.16
2023-05-13T06:25:21.664Z,96990.22
2023-05-13T06:26:25.964Z,96998.81
2023-05-13T06:27:30.756Z,96982.75
2023-05-13T06:28:37.714Z,96979.03
2023-05-13T06:29:42.209Z,96984.38
2023-05-13T06:30:48.180Z,96969.47
2023-05-13T06:31:51.821Z,96969.28
2023-05-13T06:33:02.049Z,96966.94
2023-05-13T06:34:08.286Z,96977.75
2023-05-13T06:35:13.166Z,96965.53
2023-05-13T06:36:17.935Z,96969.94
2023-05-13T06:37:21.957Z,96974.81
2023-05-13T06:38:28.341Z,96970.59
2023-05-13T06:39:32.571Z,96973.88
2023-05-13T06:40:37.747Z,96971.56
2023-05-13T06:41:42.313Z,96971.34
2023-05-13T06:42:48.360Z,96975.13
2023-05-13T06:43:58.040Z,96973.53
2023-05-13T06:45:13.206Z,96976.81
2023-05-13T06:46:19.151Z,96974.69
2023-05-13T06:47:24.413Z,96971.72
2023-05-13T06:48:30.808Z,96972.56
2023-05-13T06:49:35.374Z,96972.03
2023-05-13T06:50:42.020Z,96981.75
2023-05-13T06:51:46.334Z,96980.72
2023-05-13T06:52:53.138Z,96987.50
2023-05-13T06:53:58.110Z,96972.31
2023-05-13T06:55:03.623Z,96971.84
2023-05-13T06:56:08.090Z,96972.44
2023-05-13T06:57:13.774Z,96963.38
2023-05-13T06:58:18.730Z,96964.31
2023-05-13T06:59:26.253Z,96969.19
2023-05-13T07:00:31.863Z,96969.53
2023-05-13T07:01:36.696Z,96964.19
2023-05-13T07:02:40.823Z,96960.91
2023-05-13T07:03:46.454Z,96972.69
2023-05-13T07:04:51.461Z,96964.59
2023-05-13T07:05:57.653Z,96968.28
2023-05-13T07:07:02.167Z,96966.38
2023-05-13T07:08:09.360Z,96967.69
2023-05-13T07:09:14.465Z,96963.88
2023-05-13T07:10:20.617Z,96961.66
2023-05-13T07:11:25.985Z,96962.09
2023-05-13T07:12:31.470Z,96969.59
2023-05-13T07:13:35.915Z,96975.47
2023-05-13T07:14:45.827Z,96972.38
2023-05-13T07:15:51.614Z,96970.06
2023-05-13T07:16:55.776Z,96969.97
2023-05-13T07:18:01.398Z,96978.78
2023-05-13T07:19:06.180Z,96972.81
2023-05-13T07:20:12.245Z,96978.97
2023-05-13T07:21:15.457Z,96973.88
2023-05-13T07:22:22.723Z,96968.59
2023-05-13T07:23:27.614Z,96977.34
2023-05-13T07:24:33.449Z,96967.75
2023-05-13T07:25:38.295Z,96968.88
2023-05-13T07:26:44.146Z,96966.69
2023-05-13T07:27:48.511Z,96967.66
2023-05-13T07:28:54.006Z,96963.19
2023-05-13T07:29:59.347Z,96965.28
2023-05-13T07:31:03.765Z,96966.94
2023-05-13T07:32:08.169Z,96955.09
2023-05-13T07:33:14.331Z,96952.63
2023-05-13T07:34:17.884Z,96954.34
2023-05-13T07:35:24.118Z,96962.16
2023-05-13T07:36:28.365Z,96957.22
2023-05-13T07:37:33.049Z,96964.00
2023-05-13T07:38:39.032Z,96961.28
2023-05-13T07:39:44.279Z,96970.22
2023-05-13T07:40:49.915Z,96962.47
2023-05-13T07:41:55.360Z,96969.16
2023-05-13T07:43:01.484Z,96965.16
2023-05-13T07:44:07.356Z,96964.06
2023-05-13T07:45:13.592Z,96966.75
2023-05-13T07:46:18.114Z,96963.59
2023-05-13T07:47:25.810Z,96965.13
2023-05-13T07:48:29.741Z,96965.53
2023-05-13T07:49:34.401Z,96969.63
2023-05-13T07:50:40.049Z,96964.50
2023-05-13T07:51:45.726Z,96965.00
2023-05-13T07:52:51.488Z,96966.53
2023-05-13T07:53:58.554Z,96964.91
2023-05-13T07:55:03.477Z,96955.41
2023-05-13T07:56:08.393Z,96959.59
2023-05-13T07:57:13.843Z,96956.69
2023-05-13T07:58:18.869Z,96954.22
2023-05-13T07:59:24.195Z,96955.84
2023-05-13T08:00:31.199Z,96958.94
2023-05-13T08:01:37.037Z,96959.91
2023-05-13T08:02:40.544Z,96956.22
2023-05-13T08:03:46.121Z,96950.75
2023-05-13T08:04:50.765Z,96945.19
2023-05-13T08:05:57.412Z,96947.31
2023-05-13T08:07:03.460Z,96944.72
2023-05-13T08:08:08.345Z,96947.50
2023-05-13T08:09:15.052Z,96951.28
2023-05-13T08:10:20.783Z,96949.13
2023-05-13T08:11:26.835Z,96949.38
2023-05-13T08:12:31.247Z,96945.97
2023-05-13T08:13:37.041Z,96945.09
2023-05-13T08:14:41.702Z,96946.97
2023-05-13T08:15:48.637Z,96942.03
2023-05-13T08:16:53.405Z,96941.38
2023-05-13T08:17:58.419Z,96951.88
2023-05-13T08:19:03.049Z,96942.53
2023-05-13T08:20:09.519Z,96953.03
2023-05-13T08:21:15.234Z,96951.09
2023-05-13T08:22:18.989Z,96950.63
2023-05-13T08:23:28.343Z,96950.75
2023-05-13T08:24:43.441Z,96945.38
2023-05-13T08:25:48.151Z,96950.38
2023-05-13T08:26:53.746Z,96950.16
2023-05-13T08:28:01.191Z,96941.72
2023-05-13T08:29:06.345Z,96939.53
2023-05-13T08:30:10.503Z,96942.16
2023-05-13T08:31:17.706Z,96937.09
2023-05-13T08:32:21.427Z,96938.56
2023-05-13T08:33:26.965Z,96951.03
2023-05-13T08:34:31.501Z,96943.56
2023-05-13T08:35:37.590Z,96951.03
2023-05-13T08:36:41.467Z,96943.75
2023-05-13T08:37:48.894Z,96944.69
2023-05-13T08:38:55.728Z,96947.84
2023-05-13T08:40:03.872Z,96943.81
2023-05-13T08:41:08.772Z,96936.97
2023-05-13T08:42:20.113Z,96947.38
2023-05-13T08:43:29.080Z,96947.44
2023-05-13T08:44:35.776Z,96945.72
2023-05-13T08:45:40.398Z,96946.25
2023-05-13T08:46:56.464Z,96955.56
2023-05-13T08:48:03.553Z,96941.94
2023-05-13T08:49:10.902Z,96937.97
2023-05-13T08:50:16.290Z,96946.00
2023-05-13T08:51:22.505Z,96932.69
2023-05-13T08:52:28.848Z,96937.81
2023-05-13T08:53:37.818Z,96941.38
2023-05-13T08:54:46.264Z,96941.50
2023-05-13T08:55:51.259Z,96944.00
2023-05-13T08:56:56.443Z,96945.97
2023-05-13T08:58:02.136Z,96943.09
2023-05-13T08:59:07.158Z,96946.44
2023-05-13T09:00:12.882Z,96939.06
2023-05-13T09:01:21.148Z,96944.19
2023-05-13T09:02:27.538Z,96946.31
2023-05-13T09:03:33.949Z,96941.75
2023-05-13T09:04:42.084Z,96940.69
2023-05-13T09:05:48.103Z,96946.97
2023-05-13T09:06:52.255Z,96944.16
2023-05-13T09:07:58.873Z,96938.75
2023-05-13T09:09:07.092Z,96932.91
2023-05-13T09:10:14.659Z,96936.06
2023-05-13T09:11:19.998Z,96935.72
2023-05-13T09:12:48.386Z,96934.50
2023-05-13T09:14:00.918Z,96938.06
2023-05-13T09:15:10.758Z,96938.56
2023-05-13T09:16:17.549Z,96938.31
2023-05-13T09:17:23.166Z,96935.13
2023-05-13T09:18:34.572Z,96939.69
2023-05-13T09:19:39.783Z,96934.88
2023-05-13T09:20:46.663Z,96936.03
2023-05-13T09:21:56.515Z,96932.84
2023-05-13T09:23:04.879Z,96933.03
2023-05-13T09:24:12.279Z,96929.63
2023-05-13T09:25:20.512Z,96929.16
2023-05-13T09:26:32.618Z,96928.47
2023-05-13T09:27:42.293Z,96920.72
2023-05-13T09:28:49.038Z,96921.88
2023-05-13T09:30:01.723Z,96931.81
2023-05-13T09:31:06.653Z,96926.22
2023-05-13T09:32:12.019Z,96926.22
2023-05-13T09:33:21.079Z,96929.44
2023-05-13T09:34:32.029Z,96926.47
2023-05-13T09:35:38.510Z,96922.38
2023-05-13T09:36:42.739Z,96922.47
2023-05-13T09:37:51.059Z,96923.22
2023-05-13T09:38:56.709Z,96922.88
2023-05-13T09:40:04.482Z,96915.25
2023-05-13T09:41:09.553Z,96915.59
2023-05-13T09:42:19.788Z,96907.94
2023-05-13T09:43:27.048Z,96903.75
2023-05-13T09:44:31.977Z,96906.69
2023-05-13T09:45:39.527Z,96901.31
2023-05-13T09:46:45.513Z,96898.44
2023-05-13T09:47:55.640Z,96907.56
2023-05-13T09:48:59.862Z,96894.09
2023-05-13T09:50:09.238Z,96892.66
2023-05-13T09:51:16.739Z,96888.91
2023-05-13T09:52:24.118Z,96887.84
2023-05-13T09:53:30.140Z,96886.38
2023-05-13T09:54:37.950Z,96885.59
2023-05-13T09:55:48.916Z,96887.84
2023-05-13T09:57:02.073Z,96883.03
2023-05-13T09:58:13.924Z,96887.66
2023-05-13T09:59:21.448Z,96890.09
2023-05-13T10:00:32.714Z,96885.59
2023-05-13T10:01:38.937Z,96886.66
2023-05-13T10:02:46.582Z,96886.31
2023-05-13T10:03:56.419Z,96888.19
2023-05-13T10:05:03.723Z,96881.13
2023-05-13T10:06:12.361Z,96890.06
2023-05-13T10:07:18.631Z,96885.03
2023-05-13T10:08:25.135Z,96887.22
2023-05-13T10:09:33.429Z,96883.25
2023-05-13T10:10:40.212Z,96884.16
2023-05-13T10:11:48.249Z,96878.56
2023-05-13T10:12:54.023Z,96876.28
2023-05-13T10:14:03.484Z,96874.34
2023-05-13T10:15:09.200Z,96871.47
2023-05-13T10:16:18.728Z,96875.91
2023-05-13T10:17:24.785Z,96871.38
2023-05-13T10:18:31.438Z,96864.56
2023-05-13T10:19:38.391Z,96864.06
2023-05-13T10:20:43.711Z,96872.34
2023-05-13T10:21:52.216Z,96874.50
2023-05-13T10:23:00.935Z,96869.50
2023-05-13T10:24:07.706Z,96873.31
2023-05-13T10:25:14.445Z,96869.50
2023-05-13T10:26:20.264Z,96867.59
2023-05-13T10:27:28.490Z,96878.75
2023-05-13T10:28:33.679Z,96881.06
2023-05-13T10:29:42.246Z,96881.59
2023-05-13T10:30:50.086Z,96871.78
2023-05-13T10:31:58.652Z,96875.28
2023-05-13T10:33:05.134Z,96870.00
2023-05-13T10:34:10.934Z,96869.22
2023-05-13T10:35:17.469Z,96867.03
2023-05-13T10:36:47.756Z,96859.44
2023-05-13T10:38:05.218Z,96856.56
2023-05-13T10:39:40.141Z,96855.44
2023-05-13T10:41:05.361Z,96866.66
2023-05-13T10:42:44.392Z,96858.81
2023-05-13T10:43:58.941Z,96857.25
2023-05-13T10:45:03.368Z,96853.22
2023-05-13T10:46:13.805Z,96855.94
2023-05-13T10:47:21.606Z,96858.16
2023-05-13T10:48:28.383Z,96855.44
2023-05-13T10:49:36.660Z,96858.00
2023-05-13T10:50:53.411Z,96854.19
2023-05-13T10:52:05.951Z,96858.44
2023-05-13T10:53:23.385Z,96850.66
2023-05-13T10:54:29.832Z,96846.97
2023-05-13T10:55:48.269Z,96843.59
2023-05-13T10:56:59.475Z,96839.19
2023-05-13T10:58:13.122Z,96831.44
2023-05-13T10:59:21.543Z,96836.09
2023-05-13T11:00:32.740Z,96828.69
2023-05-13T11:01:43.598Z,96827.41
2023-05-13T11:02:53.758Z,96830.41
2023-05-13T11:04:02.476Z,96829.50
2023-05-13T11:05:08.880Z,96827.50
2023-05-13T11:06:20.095Z,96832.66
2023-05-13T11:07:24.037Z,96833.72
2023-05-13T11:08:46.218Z,96829.34
2023-05-13T11:09:52.330Z,96827.00
2023-05-13T11:10:57.650Z,96823.66
2023-05-13T11:12:03.784Z,96819.84
2023-05-13T11:13:10.666Z,96818.84
2023-05-13T11:14:21.480Z,96819.00
2023-05-13T11:15:26.252Z,96823.28
2023-05-13T11:16:32.350Z,96824.41
2023-05-13T11:17:39.199Z,96831.38
2023-05-13T11:18:46.799Z,96833.41
2023-05-13T11:19:55.393Z,96833.03
2023-05-13T11:21:05.692Z,96824.84
2023-05-13T11:22:12.164Z,96826.25
2023-05-13T11:23:20.463Z,96821.66
2023-05-13T11:24:27.218Z,96816.03
2023-05-13T11:25:30.493Z,96821.03
2023-05-13T11:26:47.439Z,96813.16
2023-05-13T11:27:52.501Z,96812.47
2023-05-13T11:29:03.351Z,96817.22
2023-05-13T11:30:09.492Z,96819.75
2023-05-13T11:31:18.555Z,96818.94
2023-05-13T11:32:54.463Z,96815.22
2023-05-13T11:34:09.948Z,96814.75
2023-05-13T11:35:15.728Z,96812.91
2023-05-13T11:36:20.783Z,96812.69
2023-05-13T11:37:27.717Z,96817.28
2023-05-13T11:38:34.174Z,96810.00
2023-05-13T11:39:41.673Z,96814.38
2023-05-13T11:40:46.120Z,96809.66
2023-05-13T11:41:52.568Z,96809.47
2023-05-13T11:42:56.655Z,96815.41
2023-05-13T11:44:03.319Z,96818.34
2023-05-13T11:45:10.950Z,96819.69
2023-05-13T11:46:23.461Z,96820.78
2023-05-13T11:47:29.735Z,96822.91
2023-05-13T11:48:35.407Z,96813.78
2023-05-13T11:49:42.480Z,96823.63
2023-05-13T11:51:19.698Z,96823.34
2023-05-13T11:52:24.686Z,96819.47
2023-05-13T11:53:28.438Z,96818.75
2023-05-13T11:54:33.028Z,96821.59
2023-05-13T11:55:38.821Z,96821.59
2023-05-13T11:56:44.474Z,96822.28
2023-05-13T11:57:52.073Z,96819.16
2023-05-13T11:58:59.037Z,96823.97
2023-05-13T12:00:07.790Z,96823.66
2023-05-13T12:01:23.300Z,96822.97
2023-05-13T12:02:30.236Z,96825.66
2023-05-13T12:03:35.781Z,96817.25
2023-05-13T12:04:40.079Z,96824.75
2023-05-13T12:05:45.733Z,96828.97
2023-05-13T12:06:52.561Z,96827.13
2023-05-13T12:07:59.793Z,96832.81
2023-05-13T12:09:08.269Z,96828.16
2023-05-13T12:10:13.748Z,96826.34
2023-05-13T12:11:19.511Z,96828.91
2023-05-13T12:12:24.902Z,96830.19
2023-05-13T12:13:28.652Z,96846.47
2023-05-13T12:14:34.578Z,96840.84
2023-05-13T12:15:38.464Z,96833.97
2023-05-13T12:16:43.346Z,96837.47
2023-05-13T12:17:47.689Z,96833.66
2023-05-13T12:18:58.896Z,96843.09
2023-05-13T12:20:07.947Z,96846.88
2023-05-13T12:21:19.992Z,96836.06
2023-05-13T12:22:23.821Z,96834.75
2023-05-13T12:23:27.829Z,96837.47
2023-05-13T12:24:35.628Z,96834.16
2023-05-13T12:25:45.399Z,96825.41
2023-05-13T12:26:51.517Z,96820.34
2023-05-13T12:27:55.528Z,96826.56
2023-05-13T12:29:01.883Z,96823.88
2023-05-13T12:30:08.494Z,96829.09
2023-05-13T12:31:21.183Z,96828.63
2023-05-13T12:32:26.422Z,96834.53
2023-05-13T12:33:32.672Z,96813.94
2023-05-13T12:34:39.729Z,96821.59
2023-05-13T12:35:50.414Z,96815.00
2023-05-13T12:36:57.445Z,96820.03
2023-05-13T12:38:05.332Z,96817.28
2023-05-13T12:39:12.841Z,96810.22
2023-05-13T12:40:19.291Z,96814.28
2023-05-13T12:41:27.519Z,96807.25
2023-05-13T12:42:35.646Z,96806.63
2023-05-13T12:43:44.248Z,96815.41
2023-05-13T12:44:49.712Z,96808.75
2023-05-13T12:45:57.629Z,96812.19
2023-05-13T12:47:04.143Z,96805.44
2023-05-13T12:48:11.308Z,96803.16
2023-05-13T12:49:18.605Z,96812.84
2023-05-13T12:50:24.579Z,96803.03
2023-05-13T12:51:33.621Z,96806.63
2023-05-13T12:52:38.447Z,96799.25
2023-05-13T12:53:44.872Z,96799.97
2023-05-13T12:54:49.872Z,96797.88
2023-05-13T12:55:56.628Z,96794.06
2023-05-13T12:57:05.700Z,96797.47
2023-05-13T12:58:12.022Z,96794.81
2023-05-13T12:59:19.921Z,96795.69
2023-05-13T13:00:26.434Z,96798.16
2023-05-13T13:01:33.611Z,96808.28
2023-05-13T13:02:40.473Z,96800.16
2023-05-13T13:03:46.995Z,96808.75
2023-05-13T13:04:52.564Z,96807.00